sensor_id;sensor_type;location;lat;lon;timestamp;P1;durP1;ratioP1;P2;durP2;ratioP2
10244;SDS011;5167;52.164;10.530;2022-11-20T00:01:24;43.30;;;19.67;;
10244;SDS011;5167;52.164;10.530;2022-11-20T00:03:51;39.77;;;19.93;;
10244;SDS011;5167;52.164;10.530;2022-11-20T00:06:19;39.67;;;18.40;;
10244;SDS011;5167;52.164;10.530;2022-11-20T00:08:45;41.73;;;20.13;;
10244;SDS011;5167;52.164;10.530;2022-11-20T00:11:12;36.10;;;18.50;;
10244;SDS011;5167;52.164;10.530;2022-11-20T00:13:39;35.47;;;16.83;;
10244;SDS011;5167;52.164;10.530;2022-11-20T00:16:05;33.33;;;17.03;;
10244;SDS011;5167;52.164;10.530;2022-11-20T00:18:33;32.63;;;16.63;;
10244;SDS011;5167;52.164;10.530;2022-11-20T00:21:06;33.47;;;16.07;;
10244;SDS011;5167;52.164;10.530;2022-11-20T00:23:34;36.47;;;17.03;;
10244;SDS011;5167;52.164;10.530;2022-11-20T00:26:01;30.70;;;15.37;;
10244;SDS011;5167;52.164;10.530;2022-11-20T00:28:30;39.53;;;17.83;;
10244;SDS011;5167;52.164;10.530;2022-11-20T00:33:35;31.53;;;15.43;;
10244;SDS011;5167;52.164;10.530;2022-11-20T00:36:01;39.37;;;17.30;;
10244;SDS011;5167;52.164;10.530;2022-11-20T00:38:31;33.50;;;17.40;;
10244;SDS011;5167;52.164;10.530;2022-11-20T00:40:57;28.53;;;16.10;;
10244;SDS011;5167;52.164;10.530;2022-11-20T00:43:24;32.97;;;16.40;;
10244;SDS011;5167;52.164;10.530;2022-11-20T00:45:55;30.53;;;16.73;;
10244;SDS011;5167;52.164;10.530;2022-11-20T00:48:25;32.13;;;16.07;;
10244;SDS011;5167;52.164;10.530;2022-11-20T00:50:51;33.40;;;16.47;;
10244;SDS011;5167;52.164;10.530;2022-11-20T00:53:17;30.77;;;16.67;;
10244;SDS011;5167;52.164;10.530;2022-11-20T00:55:43;28.50;;;15.70;;
10244;SDS011;5167;52.164;10.530;2022-11-20T00:58:16;34.73;;;16.37;;
10244;SDS011;5167;52.164;10.530;2022-11-20T01:00:42;30.73;;;16.17;;
10244;SDS011;5167;52.164;10.530;2022-11-20T01:03:07;29.83;;;16.50;;
10244;SDS011;5167;52.164;10.530;2022-11-20T01:05:34;28.23;;;15.57;;
10244;SDS011;5167;52.164;10.530;2022-11-20T01:08:00;32.37;;;16.07;;
10244;SDS011;5167;52.164;10.530;2022-11-20T01:10:25;32.70;;;16.03;;
10244;SDS011;5167;52.164;10.530;2022-11-20T01:12:51;25.60;;;14.63;;
10244;SDS011;5167;52.164;10.530;2022-11-20T01:15:36;31.47;;;15.57;;
10244;SDS011;5167;52.164;10.530;2022-11-20T01:18:02;27.67;;;13.47;;
10244;SDS011;5167;52.164;10.530;2022-11-20T01:20:27;29.90;;;15.47;;
10244;SDS011;5167;52.164;10.530;2022-11-20T01:22:53;28.80;;;13.80;;
10244;SDS011;5167;52.164;10.530;2022-11-20T01:25:18;29.97;;;14.67;;
10244;SDS011;5167;52.164;10.530;2022-11-20T01:27:44;31.47;;;15.47;;
10244;SDS011;5167;52.164;10.530;2022-11-20T01:30:10;27.70;;;14.50;;
10244;SDS011;5167;52.164;10.530;2022-11-20T01:32:36;29.50;;;14.13;;
10244;SDS011;5167;52.164;10.530;2022-11-20T01:35:01;30.33;;;14.23;;
10244;SDS011;5167;52.164;10.530;2022-11-20T01:37:27;27.87;;;13.77;;
10244;SDS011;5167;52.164;10.530;2022-11-20T01:39:52;30.07;;;14.57;;
10244;SDS011;5167;52.164;10.530;2022-11-20T01:42:18;27.43;;;12.83;;
10244;SDS011;5167;52.164;10.530;2022-11-20T01:45:42;25.57;;;14.03;;
10244;SDS011;5167;52.164;10.530;2022-11-20T01:48:06;29.23;;;14.67;;
10244;SDS011;5167;52.164;10.530;2022-11-20T01:50:31;22.90;;;13.73;;
10244;SDS011;5167;52.164;10.530;2022-11-20T01:53:02;26.53;;;13.27;;
10244;SDS011;5167;52.164;10.530;2022-11-20T01:55:37;30.67;;;13.63;;
10244;SDS011;5167;52.164;10.530;2022-11-20T01:58:06;26.80;;;14.17;;
10244;SDS011;5167;52.164;10.530;2022-11-20T02:00:32;26.43;;;13.50;;
10244;SDS011;5167;52.164;10.530;2022-11-20T02:02:58;23.07;;;12.67;;
10244;SDS011;5167;52.164;10.530;2022-11-20T02:05:31;22.80;;;11.10;;
10244;SDS011;5167;52.164;10.530;2022-11-20T02:08:02;20.07;;;9.90;;
10244;SDS011;5167;52.164;10.530;2022-11-20T02:10:29;16.90;;;9.70;;
10244;SDS011;5167;52.164;10.530;2022-11-20T02:12:55;16.30;;;9.20;;
10244;SDS011;5167;52.164;10.530;2022-11-20T02:15:40;18.93;;;9.53;;
10244;SDS011;5167;52.164;10.530;2022-11-20T02:18:06;17.00;;;8.40;;
10244;SDS011;5167;52.164;10.530;2022-11-20T02:20:32;16.93;;;8.63;;
10244;SDS011;5167;52.164;10.530;2022-11-20T02:23:05;16.57;;;8.70;;
10244;SDS011;5167;52.164;10.530;2022-11-20T02:25:59;17.90;;;8.90;;
10244;SDS011;5167;52.164;10.530;2022-11-20T02:28:28;15.07;;;8.57;;
10244;SDS011;5167;52.164;10.530;2022-11-20T02:30:53;19.23;;;9.63;;
10244;SDS011;5167;52.164;10.530;2022-11-20T02:33:19;17.50;;;9.37;;
10244;SDS011;5167;52.164;10.530;2022-11-20T02:35:45;13.87;;;7.70;;
10244;SDS011;5167;52.164;10.530;2022-11-20T02:38:11;18.30;;;9.43;;
10244;SDS011;5167;52.164;10.530;2022-11-20T02:40:38;17.77;;;9.97;;
10244;SDS011;5167;52.164;10.530;2022-11-20T02:43:04;17.90;;;9.70;;
10244;SDS011;5167;52.164;10.530;2022-11-20T02:45:29;17.00;;;9.73;;
10244;SDS011;5167;52.164;10.530;2022-11-20T02:47:55;16.63;;;8.93;;
10244;SDS011;5167;52.164;10.530;2022-11-20T02:50:21;17.73;;;10.37;;
10244;SDS011;5167;52.164;10.530;2022-11-20T02:52:46;17.47;;;9.43;;
10244;SDS011;5167;52.164;10.530;2022-11-20T02:55:12;18.67;;;10.07;;
10244;SDS011;5167;52.164;10.530;2022-11-20T02:57:37;20.13;;;11.30;;
10244;SDS011;5167;52.164;10.530;2022-11-20T03:00:03;19.07;;;9.67;;
10244;SDS011;5167;52.164;10.530;2022-11-20T03:02:30;15.53;;;9.43;;
10244;SDS011;5167;52.164;10.530;2022-11-20T03:04:56;16.00;;;9.73;;
10244;SDS011;5167;52.164;10.530;2022-11-20T03:07:21;17.17;;;9.27;;
10244;SDS011;5167;52.164;10.530;2022-11-20T03:09:47;14.67;;;8.43;;
10244;SDS011;5167;52.164;10.530;2022-11-20T03:12:13;12.23;;;8.53;;
10244;SDS011;5167;52.164;10.530;2022-11-20T03:14:38;16.33;;;8.47;;
10244;SDS011;5167;52.164;10.530;2022-11-20T03:17:04;15.43;;;7.63;;
10244;SDS011;5167;52.164;10.530;2022-11-20T03:19:29;13.87;;;8.00;;
10244;SDS011;5167;52.164;10.530;2022-11-20T03:21:55;15.07;;;8.27;;
10244;SDS011;5167;52.164;10.530;2022-11-20T03:24:21;16.63;;;9.07;;
10244;SDS011;5167;52.164;10.530;2022-11-20T03:26:46;18.33;;;9.17;;
10244;SDS011;5167;52.164;10.530;2022-11-20T03:29:12;18.03;;;8.87;;
10244;SDS011;5167;52.164;10.530;2022-11-20T03:31:39;16.43;;;8.70;;
10244;SDS011;5167;52.164;10.530;2022-11-20T03:34:05;15.80;;;8.90;;
10244;SDS011;5167;52.164;10.530;2022-11-20T03:36:32;13.40;;;7.40;;
10244;SDS011;5167;52.164;10.530;2022-11-20T03:38:59;11.93;;;8.40;;
10244;SDS011;5167;52.164;10.530;2022-11-20T03:41:29;13.67;;;8.60;;
10244;SDS011;5167;52.164;10.530;2022-11-20T03:44:00;16.93;;;9.27;;
10244;SDS011;5167;52.164;10.530;2022-11-20T03:46:28;16.07;;;8.80;;
10244;SDS011;5167;52.164;10.530;2022-11-20T03:48:53;17.37;;;8.73;;
10244;SDS011;5167;52.164;10.530;2022-11-20T03:51:20;23.67;;;9.97;;
10244;SDS011;5167;52.164;10.530;2022-11-20T03:53:48;16.40;;;8.23;;
10244;SDS011;5167;52.164;10.530;2022-11-20T03:56:16;13.23;;;7.87;;
10244;SDS011;5167;52.164;10.530;2022-11-20T03:58:44;17.13;;;9.23;;
10244;SDS011;5167;52.164;10.530;2022-11-20T04:01:13;17.00;;;9.03;;
10244;SDS011;5167;52.164;10.530;2022-11-20T04:03:53;18.27;;;9.50;;
10244;SDS011;5167;52.164;10.530;2022-11-20T04:06:20;15.60;;;8.30;;
10244;SDS011;5167;52.164;10.530;2022-11-20T04:08:47;17.37;;;8.53;;
10244;SDS011;5167;52.164;10.530;2022-11-20T04:11:14;14.00;;;8.43;;
10244;SDS011;5167;52.164;10.530;2022-11-20T04:13:42;15.93;;;8.33;;
10244;SDS011;5167;52.164;10.530;2022-11-20T04:16:11;20.03;;;9.03;;
10244;SDS011;5167;52.164;10.530;2022-11-20T04:18:36;13.77;;;8.63;;
10244;SDS011;5167;52.164;10.530;2022-11-20T04:21:02;15.80;;;8.23;;
10244;SDS011;5167;52.164;10.530;2022-11-20T04:23:28;12.50;;;8.13;;
10244;SDS011;5167;52.164;10.530;2022-11-20T04:25:54;18.17;;;8.57;;
10244;SDS011;5167;52.164;10.530;2022-11-20T04:28:19;15.33;;;8.87;;
10244;SDS011;5167;52.164;10.530;2022-11-20T04:30:45;17.50;;;9.03;;
10244;SDS011;5167;52.164;10.530;2022-11-20T04:33:11;14.60;;;8.60;;
10244;SDS011;5167;52.164;10.530;2022-11-20T04:35:37;14.70;;;9.37;;
10244;SDS011;5167;52.164;10.530;2022-11-20T04:38:03;15.53;;;7.87;;
10244;SDS011;5167;52.164;10.530;2022-11-20T04:40:29;17.57;;;9.03;;
10244;SDS011;5167;52.164;10.530;2022-11-20T04:42:55;16.70;;;8.00;;
10244;SDS011;5167;52.164;10.530;2022-11-20T04:45:21;14.60;;;8.10;;
10244;SDS011;5167;52.164;10.530;2022-11-20T04:47:47;14.30;;;8.07;;
10244;SDS011;5167;52.164;10.530;2022-11-20T04:50:14;12.77;;;8.13;;
10244;SDS011;5167;52.164;10.530;2022-11-20T04:52:39;15.37;;;8.30;;
10244;SDS011;5167;52.164;10.530;2022-11-20T04:55:05;14.57;;;8.10;;
10244;SDS011;5167;52.164;10.530;2022-11-20T04:57:31;12.07;;;7.77;;
10244;SDS011;5167;52.164;10.530;2022-11-20T04:59:56;12.97;;;7.53;;
10244;SDS011;5167;52.164;10.530;2022-11-20T05:02:22;15.13;;;7.90;;
10244;SDS011;5167;52.164;10.530;2022-11-20T05:04:47;14.40;;;8.53;;
10244;SDS011;5167;52.164;10.530;2022-11-20T05:07:13;14.90;;;8.47;;
10244;SDS011;5167;52.164;10.530;2022-11-20T05:09:39;12.60;;;7.77;;
10244;SDS011;5167;52.164;10.530;2022-11-20T05:12:06;14.00;;;7.63;;
10244;SDS011;5167;52.164;10.530;2022-11-20T05:14:32;10.93;;;7.77;;
10244;SDS011;5167;52.164;10.530;2022-11-20T05:16:58;12.67;;;7.33;;
10244;SDS011;5167;52.164;10.530;2022-11-20T05:19:24;13.07;;;8.90;;
10244;SDS011;5167;52.164;10.530;2022-11-20T05:21:49;18.37;;;7.30;;
10244;SDS011;5167;52.164;10.530;2022-11-20T05:24:15;13.47;;;7.60;;
10244;SDS011;5167;52.164;10.530;2022-11-20T05:26:40;13.03;;;8.37;;
10244;SDS011;5167;52.164;10.530;2022-11-20T05:29:06;12.83;;;7.10;;
10244;SDS011;5167;52.164;10.530;2022-11-20T05:31:31;14.27;;;7.83;;
10244;SDS011;5167;52.164;10.530;2022-11-20T05:33:57;12.27;;;7.87;;
10244;SDS011;5167;52.164;10.530;2022-11-20T05:36:23;16.07;;;8.77;;
10244;SDS011;5167;52.164;10.530;2022-11-20T05:38:49;11.63;;;7.00;;
10244;SDS011;5167;52.164;10.530;2022-11-20T05:41:15;9.23;;;6.97;;
10244;SDS011;5167;52.164;10.530;2022-11-20T05:43:42;13.70;;;7.47;;
10244;SDS011;5167;52.164;10.530;2022-11-20T05:46:10;11.63;;;7.33;;
10244;SDS011;5167;52.164;10.530;2022-11-20T05:48:37;15.67;;;8.23;;
10244;SDS011;5167;52.164;10.530;2022-11-20T05:51:04;11.70;;;7.37;;
10244;SDS011;5167;52.164;10.530;2022-11-20T05:53:32;12.47;;;7.67;;
10244;SDS011;5167;52.164;10.530;2022-11-20T05:58:26;14.10;;;7.00;;
10244;SDS011;5167;52.164;10.530;2022-11-20T06:00:52;13.40;;;7.50;;
10244;SDS011;5167;52.164;10.530;2022-11-20T06:03:17;17.33;;;10.77;;
10244;SDS011;5167;52.164;10.530;2022-11-20T06:05:43;13.77;;;8.47;;
10244;SDS011;5167;52.164;10.530;2022-11-20T06:08:08;13.93;;;9.17;;
10244;SDS011;5167;52.164;10.530;2022-11-20T06:10:34;13.10;;;8.87;;
10244;SDS011;5167;52.164;10.530;2022-11-20T06:12:59;17.10;;;8.57;;
10244;SDS011;5167;52.164;10.530;2022-11-20T06:15:25;16.43;;;9.87;;
10244;SDS011;5167;52.164;10.530;2022-11-20T06:17:54;15.47;;;7.63;;
10244;SDS011;5167;52.164;10.530;2022-11-20T06:20:20;11.27;;;6.93;;
10244;SDS011;5167;52.164;10.530;2022-11-20T06:22:46;13.53;;;6.60;;
10244;SDS011;5167;52.164;10.530;2022-11-20T06:25:12;12.93;;;6.83;;
10244;SDS011;5167;52.164;10.530;2022-11-20T06:27:38;11.27;;;6.13;;
10244;SDS011;5167;52.164;10.530;2022-11-20T06:30:04;9.17;;;6.30;;
10244;SDS011;5167;52.164;10.530;2022-11-20T06:32:30;9.97;;;6.40;;
10244;SDS011;5167;52.164;10.530;2022-11-20T06:34:55;11.00;;;6.67;;
10244;SDS011;5167;52.164;10.530;2022-11-20T06:37:21;9.13;;;6.33;;
10244;SDS011;5167;52.164;10.530;2022-11-20T06:39:46;11.70;;;6.73;;
10244;SDS011;5167;52.164;10.530;2022-11-20T06:42:12;10.77;;;7.27;;
10244;SDS011;5167;52.164;10.530;2022-11-20T06:44:37;12.27;;;7.23;;
10244;SDS011;5167;52.164;10.530;2022-11-20T06:47:03;11.60;;;7.23;;
10244;SDS011;5167;52.164;10.530;2022-11-20T06:49:28;8.90;;;6.43;;
10244;SDS011;5167;52.164;10.530;2022-11-20T06:51:54;12.77;;;7.90;;
10244;SDS011;5167;52.164;10.530;2022-11-20T06:54:19;14.67;;;9.93;;
10244;SDS011;5167;52.164;10.530;2022-11-20T06:56:48;16.13;;;9.70;;
10244;SDS011;5167;52.164;10.530;2022-11-20T06:59:14;14.57;;;8.73;;
10244;SDS011;5167;52.164;10.530;2022-11-20T07:01:39;11.27;;;7.80;;
10244;SDS011;5167;52.164;10.530;2022-11-20T07:04:05;14.13;;;7.87;;
10244;SDS011;5167;52.164;10.530;2022-11-20T07:06:31;14.70;;;8.50;;
10244;SDS011;5167;52.164;10.530;2022-11-20T07:08:56;13.07;;;7.87;;
10244;SDS011;5167;52.164;10.530;2022-11-20T07:11:22;11.73;;;7.00;;
10244;SDS011;5167;52.164;10.530;2022-11-20T07:13:48;10.07;;;6.80;;
10244;SDS011;5167;52.164;10.530;2022-11-20T07:16:13;12.70;;;6.83;;
10244;SDS011;5167;52.164;10.530;2022-11-20T07:18:39;12.40;;;6.87;;
10244;SDS011;5167;52.164;10.530;2022-11-20T07:21:06;11.53;;;6.60;;
10244;SDS011;5167;52.164;10.530;2022-11-20T07:23:33;12.73;;;7.43;;
10244;SDS011;5167;52.164;10.530;2022-11-20T07:26:03;14.80;;;7.80;;
10244;SDS011;5167;52.164;10.530;2022-11-20T07:28:32;14.17;;;6.97;;
10244;SDS011;5167;52.164;10.530;2022-11-20T07:30:58;11.43;;;6.60;;
10244;SDS011;5167;52.164;10.530;2022-11-20T07:33:24;15.87;;;7.73;;
10244;SDS011;5167;52.164;10.530;2022-11-20T07:35:49;14.10;;;7.10;;
10244;SDS011;5167;52.164;10.530;2022-11-20T07:38:15;13.73;;;7.80;;
10244;SDS011;5167;52.164;10.530;2022-11-20T07:40:40;12.60;;;7.17;;
10244;SDS011;5167;52.164;10.530;2022-11-20T07:43:06;16.27;;;7.73;;
10244;SDS011;5167;52.164;10.530;2022-11-20T07:45:31;12.10;;;7.83;;
10244;SDS011;5167;52.164;10.530;2022-11-20T07:47:57;12.90;;;7.07;;
10244;SDS011;5167;52.164;10.530;2022-11-20T07:50:22;11.50;;;6.47;;
10244;SDS011;5167;52.164;10.530;2022-11-20T07:52:48;14.50;;;8.33;;
10244;SDS011;5167;52.164;10.530;2022-11-20T07:55:14;13.83;;;7.37;;
10244;SDS011;5167;52.164;10.530;2022-11-20T07:57:39;14.83;;;7.47;;
10244;SDS011;5167;52.164;10.530;2022-11-20T08:00:06;12.40;;;6.87;;
10244;SDS011;5167;52.164;10.530;2022-11-20T08:02:39;13.83;;;7.43;;
10244;SDS011;5167;52.164;10.530;2022-11-20T08:05:05;13.70;;;8.67;;
10244;SDS011;5167;52.164;10.530;2022-11-20T08:07:38;11.37;;;7.60;;
10244;SDS011;5167;52.164;10.530;2022-11-20T08:10:05;14.33;;;7.40;;
10244;SDS011;5167;52.164;10.530;2022-11-20T08:12:32;13.80;;;7.43;;
10244;SDS011;5167;52.164;10.530;2022-11-20T08:15:16;12.17;;;7.67;;
10244;SDS011;5167;52.164;10.530;2022-11-20T08:17:42;11.77;;;7.67;;
10244;SDS011;5167;52.164;10.530;2022-11-20T08:20:08;11.97;;;7.43;;
10244;SDS011;5167;52.164;10.530;2022-11-20T08:22:33;12.53;;;7.00;;
10244;SDS011;5167;52.164;10.530;2022-11-20T08:24:59;10.80;;;7.03;;
10244;SDS011;5167;52.164;10.530;2022-11-20T08:27:25;12.07;;;7.97;;
10244;SDS011;5167;52.164;10.530;2022-11-20T08:29:50;13.90;;;8.00;;
10244;SDS011;5167;52.164;10.530;2022-11-20T08:32:16;14.33;;;7.90;;
10244;SDS011;5167;52.164;10.530;2022-11-20T08:34:41;13.20;;;8.37;;
10244;SDS011;5167;52.164;10.530;2022-11-20T08:37:07;12.20;;;8.03;;
10244;SDS011;5167;52.164;10.530;2022-11-20T08:39:32;15.77;;;8.03;;
10244;SDS011;5167;52.164;10.530;2022-11-20T08:41:58;14.50;;;7.73;;
10244;SDS011;5167;52.164;10.530;2022-11-20T08:44:23;12.03;;;7.33;;
10244;SDS011;5167;52.164;10.530;2022-11-20T08:46:49;12.03;;;7.37;;
10244;SDS011;5167;52.164;10.530;2022-11-20T08:49:14;11.47;;;7.67;;
10244;SDS011;5167;52.164;10.530;2022-11-20T08:51:40;12.77;;;7.47;;
10244;SDS011;5167;52.164;10.530;2022-11-20T08:54:06;11.47;;;7.60;;
10244;SDS011;5167;52.164;10.530;2022-11-20T08:56:33;12.13;;;7.73;;
10244;SDS011;5167;52.164;10.530;2022-11-20T08:58:58;13.47;;;8.83;;
10244;SDS011;5167;52.164;10.530;2022-11-20T09:01:24;19.77;;;9.10;;
10244;SDS011;5167;52.164;10.530;2022-11-20T09:03:50;14.57;;;8.03;;
10244;SDS011;5167;52.164;10.530;2022-11-20T09:06:16;11.63;;;7.03;;
10244;SDS011;5167;52.164;10.530;2022-11-20T09:08:42;14.00;;;7.80;;
10244;SDS011;5167;52.164;10.530;2022-11-20T09:11:08;12.33;;;6.97;;
10244;SDS011;5167;52.164;10.530;2022-11-20T09:13:34;13.70;;;7.13;;
10244;SDS011;5167;52.164;10.530;2022-11-20T09:16:02;10.33;;;6.33;;
10244;SDS011;5167;52.164;10.530;2022-11-20T09:18:32;11.53;;;7.10;;
10244;SDS011;5167;52.164;10.530;2022-11-20T09:21:02;10.10;;;5.87;;
10244;SDS011;5167;52.164;10.530;2022-11-20T09:23:33;10.97;;;6.20;;
10244;SDS011;5167;52.164;10.530;2022-11-20T09:26:04;14.17;;;6.60;;
10244;SDS011;5167;52.164;10.530;2022-11-20T09:28:30;12.13;;;7.40;;
10244;SDS011;5167;52.164;10.530;2022-11-20T09:30:56;10.60;;;6.43;;
10244;SDS011;5167;52.164;10.530;2022-11-20T09:33:22;11.53;;;6.60;;
10244;SDS011;5167;52.164;10.530;2022-11-20T09:35:47;9.70;;;6.43;;
10244;SDS011;5167;52.164;10.530;2022-11-20T09:38:13;11.37;;;7.13;;
10244;SDS011;5167;52.164;10.530;2022-11-20T09:40:47;10.30;;;6.37;;
10244;SDS011;5167;52.164;10.530;2022-11-20T09:43:32;12.50;;;6.33;;
10244;SDS011;5167;52.164;10.530;2022-11-20T09:46:30;10.17;;;6.40;;
10244;SDS011;5167;52.164;10.530;2022-11-20T09:51:48;10.83;;;6.17;;
10244;SDS011;5167;52.164;10.530;2022-11-20T09:54:18;13.67;;;8.17;;
10244;SDS011;5167;52.164;10.530;2022-11-20T09:56:53;10.70;;;6.60;;
10244;SDS011;5167;52.164;10.530;2022-11-20T10:01:57;11.93;;;7.60;;
10244;SDS011;5167;52.164;10.530;2022-11-20T10:04:25;11.80;;;6.73;;
10244;SDS011;5167;52.164;10.530;2022-11-20T10:09:34;10.23;;;6.93;;
10244;SDS011;5167;52.164;10.530;2022-11-20T10:17:26;11.37;;;6.73;;
10244;SDS011;5167;52.164;10.530;2022-11-20T10:20:16;12.23;;;7.30;;
10244;SDS011;5167;52.164;10.530;2022-11-20T10:31:31;9.30;;;6.57;;
10244;SDS011;5167;52.164;10.530;2022-11-20T10:34:00;10.37;;;5.93;;
10244;SDS011;5167;52.164;10.530;2022-11-20T10:36:38;9.23;;;6.43;;
10244;SDS011;5167;52.164;10.530;2022-11-20T10:41:49;11.47;;;6.60;;
10244;SDS011;5167;52.164;10.530;2022-11-20T10:44:19;11.33;;;6.47;;
10244;SDS011;5167;52.164;10.530;2022-11-20T10:47:12;14.50;;;7.13;;
10244;SDS011;5167;52.164;10.530;2022-11-20T10:49:46;14.80;;;8.17;;
10244;SDS011;5167;52.164;10.530;2022-11-20T11:00:47;18.53;;;10.90;;
10244;SDS011;5167;52.164;10.530;2022-11-20T11:03:20;14.23;;;7.47;;
10244;SDS011;5167;52.164;10.530;2022-11-20T11:05:51;12.63;;;7.67;;
10244;SDS011;5167;52.164;10.530;2022-11-20T11:08:28;12.97;;;7.00;;
10244;SDS011;5167;52.164;10.530;2022-11-20T11:11:00;14.40;;;7.67;;
10244;SDS011;5167;52.164;10.530;2022-11-20T11:13:37;16.03;;;8.43;;
10244;SDS011;5167;52.164;10.530;2022-11-20T11:16:03;13.50;;;7.50;;
10244;SDS011;5167;52.164;10.530;2022-11-20T11:18:30;11.80;;;7.33;;
10244;SDS011;5167;52.164;10.530;2022-11-20T11:20:57;12.17;;;7.13;;
10244;SDS011;5167;52.164;10.530;2022-11-20T11:25:59;17.43;;;8.33;;
10244;SDS011;5167;52.164;10.530;2022-11-20T11:28:26;14.00;;;7.40;;
10244;SDS011;5167;52.164;10.530;2022-11-20T11:30:53;11.07;;;6.30;;
10244;SDS011;5167;52.164;10.530;2022-11-20T11:33:20;11.50;;;6.17;;
10244;SDS011;5167;52.164;10.530;2022-11-20T11:35:49;12.13;;;6.53;;
10244;SDS011;5167;52.164;10.530;2022-11-20T11:38:38;9.40;;;5.77;;
10244;SDS011;5167;52.164;10.530;2022-11-20T11:41:09;15.10;;;7.33;;
10244;SDS011;5167;52.164;10.530;2022-11-20T11:43:50;12.93;;;6.83;;
10244;SDS011;5167;52.164;10.530;2022-11-20T11:46:40;13.63;;;7.17;;
10244;SDS011;5167;52.164;10.530;2022-11-20T11:49:15;9.37;;;6.33;;
10244;SDS011;5167;52.164;10.530;2022-11-20T11:54:32;12.27;;;7.00;;
10244;SDS011;5167;52.164;10.530;2022-11-20T11:57:05;9.07;;;5.90;;
10244;SDS011;5167;52.164;10.530;2022-11-20T11:59:44;9.67;;;5.97;;
10244;SDS011;5167;52.164;10.530;2022-11-20T12:02:29;9.57;;;6.10;;
10244;SDS011;5167;52.164;10.530;2022-11-20T12:07:39;10.63;;;6.87;;
10244;SDS011;5167;52.164;10.530;2022-11-20T12:10:13;8.13;;;5.40;;
10244;SDS011;5167;52.164;10.530;2022-11-20T12:12:47;10.57;;;5.80;;
10244;SDS011;5167;52.164;10.530;2022-11-20T12:15:23;10.20;;;6.20;;
10244;SDS011;5167;52.164;10.530;2022-11-20T12:17:53;12.07;;;6.90;;
10244;SDS011;5167;52.164;10.530;2022-11-20T12:20:19;11.07;;;6.50;;
10244;SDS011;5167;52.164;10.530;2022-11-20T12:25:31;11.20;;;7.37;;
10244;SDS011;5167;52.164;10.530;2022-11-20T12:30:41;12.20;;;5.70;;
10244;SDS011;5167;52.164;10.530;2022-11-20T12:36:06;10.37;;;6.00;;
10244;SDS011;5167;52.164;10.530;2022-11-20T12:44:52;8.77;;;5.77;;
10244;SDS011;5167;52.164;10.530;2022-11-20T12:53:04;7.93;;;5.50;;
10244;SDS011;5167;52.164;10.530;2022-11-20T12:58:26;10.60;;;6.27;;
10244;SDS011;5167;52.164;10.530;2022-11-20T13:00:55;12.07;;;7.23;;
10244;SDS011;5167;52.164;10.530;2022-11-20T13:03:32;13.47;;;5.83;;
10244;SDS011;5167;52.164;10.530;2022-11-20T13:08:43;11.47;;;5.90;;
10244;SDS011;5167;52.164;10.530;2022-11-20T13:19:40;12.90;;;6.20;;
10244;SDS011;5167;52.164;10.530;2022-11-20T13:22:07;11.73;;;5.77;;
10244;SDS011;5167;52.164;10.530;2022-11-20T13:24:34;10.73;;;5.77;;
10244;SDS011;5167;52.164;10.530;2022-11-20T13:27:00;9.27;;;5.97;;
10244;SDS011;5167;52.164;10.530;2022-11-20T13:29:26;9.47;;;5.77;;
10244;SDS011;5167;52.164;10.530;2022-11-20T13:32:00;10.67;;;5.73;;
10244;SDS011;5167;52.164;10.530;2022-11-20T13:34:28;10.30;;;5.80;;
10244;SDS011;5167;52.164;10.530;2022-11-20T13:36:55;11.80;;;6.10;;
10244;SDS011;5167;52.164;10.530;2022-11-20T13:39:35;10.70;;;6.17;;
10244;SDS011;5167;52.164;10.530;2022-11-20T13:42:03;12.57;;;7.33;;
10244;SDS011;5167;52.164;10.530;2022-11-20T13:45:00;10.27;;;6.10;;
10244;SDS011;5167;52.164;10.530;2022-11-20T13:47:33;8.90;;;5.73;;
10244;SDS011;5167;52.164;10.530;2022-11-20T13:50:00;10.63;;;6.40;;
10244;SDS011;5167;52.164;10.530;2022-11-20T13:55:11;9.97;;;5.93;;
10244;SDS011;5167;52.164;10.530;2022-11-20T14:00:17;14.63;;;7.57;;
10244;SDS011;5167;52.164;10.530;2022-11-20T14:02:46;13.93;;;7.53;;
10244;SDS011;5167;52.164;10.530;2022-11-20T14:05:31;11.03;;;6.60;;
10244;SDS011;5167;52.164;10.530;2022-11-20T14:08:03;12.57;;;6.60;;
10244;SDS011;5167;52.164;10.530;2022-11-20T14:10:31;13.17;;;7.03;;
10244;SDS011;5167;52.164;10.530;2022-11-20T14:12:56;15.27;;;7.90;;
10244;SDS011;5167;52.164;10.530;2022-11-20T14:15:26;12.20;;;6.60;;
10244;SDS011;5167;52.164;10.530;2022-11-20T14:17:54;11.80;;;7.07;;
10244;SDS011;5167;52.164;10.530;2022-11-20T14:20:19;13.07;;;7.20;;
10244;SDS011;5167;52.164;10.530;2022-11-20T14:22:50;12.00;;;7.63;;
10244;SDS011;5167;52.164;10.530;2022-11-20T14:25:19;12.77;;;8.47;;
10244;SDS011;5167;52.164;10.530;2022-11-20T14:27:58;11.37;;;7.60;;
10244;SDS011;5167;52.164;10.530;2022-11-20T14:30:26;10.73;;;6.80;;
10244;SDS011;5167;52.164;10.530;2022-11-20T14:33:01;14.93;;;7.40;;
10244;SDS011;5167;52.164;10.530;2022-11-20T14:35:29;13.90;;;8.43;;
10244;SDS011;5167;52.164;10.530;2022-11-20T14:37:58;11.60;;;7.03;;
10244;SDS011;5167;52.164;10.530;2022-11-20T14:40:30;14.77;;;7.97;;
10244;SDS011;5167;52.164;10.530;2022-11-20T14:43:00;11.90;;;7.53;;
10244;SDS011;5167;52.164;10.530;2022-11-20T14:45:25;12.87;;;7.67;;
10244;SDS011;5167;52.164;10.530;2022-11-20T14:47:52;13.30;;;7.57;;
10244;SDS011;5167;52.164;10.530;2022-11-20T14:50:22;11.57;;;7.33;;
10244;SDS011;5167;52.164;10.530;2022-11-20T14:52:53;15.17;;;7.73;;
10244;SDS011;5167;52.164;10.530;2022-11-20T14:55:33;12.90;;;7.13;;
10244;SDS011;5167;52.164;10.530;2022-11-20T14:58:04;15.23;;;7.47;;
10244;SDS011;5167;52.164;10.530;2022-11-20T15:00:31;19.60;;;10.27;;
10244;SDS011;5167;52.164;10.530;2022-11-20T15:02:57;15.73;;;7.67;;
10244;SDS011;5167;52.164;10.530;2022-11-20T15:05:25;16.33;;;8.17;;
10244;SDS011;5167;52.164;10.530;2022-11-20T15:08:09;12.17;;;7.57;;
10244;SDS011;5167;52.164;10.530;2022-11-20T15:10:35;12.63;;;7.40;;
10244;SDS011;5167;52.164;10.530;2022-11-20T15:13:03;13.37;;;7.13;;
10244;SDS011;5167;52.164;10.530;2022-11-20T15:15:50;14.13;;;8.13;;
10244;SDS011;5167;52.164;10.530;2022-11-20T15:18:25;15.47;;;8.13;;
10244;SDS011;5167;52.164;10.530;2022-11-20T15:20:57;14.73;;;8.33;;
10244;SDS011;5167;52.164;10.530;2022-11-20T15:23:26;12.50;;;8.17;;
10244;SDS011;5167;52.164;10.530;2022-11-20T15:25:52;12.93;;;8.40;;
10244;SDS011;5167;52.164;10.530;2022-11-20T15:28:19;15.30;;;8.30;;
10244;SDS011;5167;52.164;10.530;2022-11-20T15:31:05;15.40;;;8.30;;
10244;SDS011;5167;52.164;10.530;2022-11-20T15:33:32;12.73;;;7.67;;
10244;SDS011;5167;52.164;10.530;2022-11-20T15:35:58;17.33;;;9.37;;
10244;SDS011;5167;52.164;10.530;2022-11-20T15:38:24;19.30;;;8.60;;
10244;SDS011;5167;52.164;10.530;2022-11-20T15:40:49;16.53;;;8.93;;
10244;SDS011;5167;52.164;10.530;2022-11-20T15:43:15;15.30;;;9.57;;
10244;SDS011;5167;52.164;10.530;2022-11-20T15:45:41;17.17;;;10.10;;
10244;SDS011;5167;52.164;10.530;2022-11-20T15:48:16;15.63;;;9.57;;
10244;SDS011;5167;52.164;10.530;2022-11-20T15:50:52;17.33;;;9.80;;
10244;SDS011;5167;52.164;10.530;2022-11-20T15:53:36;15.37;;;9.40;;
10244;SDS011;5167;52.164;10.530;2022-11-20T15:56:03;17.20;;;9.73;;
10244;SDS011;5167;52.164;10.530;2022-11-20T15:58:29;13.90;;;8.53;;
10244;SDS011;5167;52.164;10.530;2022-11-20T16:00:54;16.50;;;9.23;;
10244;SDS011;5167;52.164;10.530;2022-11-20T16:03:20;15.10;;;8.60;;
10244;SDS011;5167;52.164;10.530;2022-11-20T16:05:46;16.87;;;9.90;;
10244;SDS011;5167;52.164;10.530;2022-11-20T16:08:11;16.20;;;9.67;;